Time;durP1;ratioP1;P1;durP2;ratioP2;P2;SDS_P1;SDS_P2;PMS_P1;PMS_P2;Temp;Humidity;BMP_temperature;BMP_pressure;BME280_temperature;BME280_humidity;BME280_pressure;Samples;Min_cycle;Max_cycle;Signal;HPM_P1;HPM_P2
2022/02/25 00:00:00;;;;;;;23.87;10.30;;;;;;;6.81;67.21;99910.63;1600529;88;25808;-79
2022/02/25 00:02:27;;;;;;;18.52;7.67;;;;;;;6.82;67.13;99917.63;1613293;88;27502;-80
2022/02/25 00:04:53;;;;;;;19.32;8.73;;;;;;;6.86;67.28;99914.92;1621759;87;25905;-79
2022/02/25 00:07:19;;;;;;;18.10;8.10;;;;;;;6.87;67.66;99917.41;1580954;89;25988;-79
2022/02/25 00:09:45;;;;;;;23.77;9.30;;;;;;;6.87;68.23;99913.91;1580492;88;26630;-80
2022/02/25 00:12:11;;;;;;;17.82;8.53;;;;;;;6.85;68.42;99920.75;1601740;88;25943;-80
2022/02/25 00:14:38;;;;;;;19.27;9.45;;;;;;;6.86;68.39;99926.91;1611056;88;27494;-79
2022/02/25 00:17:04;;;;;;;18.55;8.50;;;;;;;6.84;68.51;99925.73;1623981;87;25880;-79
2022/02/25 00:19:30;;;;;;;21.17;9.00;;;;;;;6.85;68.48;99914.09;1584788;88;26029;-79
2022/02/25 00:21:57;;;;;;;20.37;9.15;;;;;;;6.85;68.61;99918.09;1602745;88;25940;-79
2022/02/25 00:24:23;;;;;;;22.05;8.90;;;;;;;6.85;68.40;99914.09;1599840;88;25836;-79
2022/02/25 00:26:50;;;;;;;17.95;7.97;;;;;;;6.86;68.34;99902.42;1616005;87;27526;-79
2022/02/25 00:29:16;;;;;;;23.42;8.80;;;;;;;6.88;67.99;99904.42;1574864;90;25879;-79
2022/02/25 00:31:42;;;;;;;18.73;7.45;;;;;;;6.90;68.29;99908.23;1599688;88;25852;-79
2022/02/25 00:34:09;;;;;;;13.83;7.15;;;;;;;6.93;68.03;99910.52;1616936;86;25972;-79
2022/02/25 00:36:35;;;;;;;16.57;7.60;;;;;;;6.96;67.88;99909.67;1599174;88;25819;-79
2022/02/25 00:39:01;;;;;;;16.90;7.53;;;;;;;6.98;68.34;99912.14;1588595;88;27630;-79
2022/02/25 00:41:28;;;;;;;15.55;7.40;;;;;;;7.00;68.76;99914.12;1599047;88;26489;-79
2022/02/25 00:43:54;;;;;;;16.30;7.25;;;;;;;7.00;69.11;99922.95;1588448;89;25788;-79
2022/02/25 00:46:20;;;;;;;14.60;7.03;;;;;;;6.97;69.58;99911.84;1609775;88;26579;-80
2022/02/25 00:48:49;;;;;;;13.85;6.58;;;;;;;6.95;69.75;99911.16;1616210;87;25903;-80
2022/02/25 00:51:14;;;;;;;17.95;7.22;;;;;;;6.95;70.16;99904.50;1619566;87;27464;-80
2022/02/25 00:53:41;;;;;;;16.10;6.87;;;;;;;6.94;70.03;99909.03;1617040;87;25767;-79
2022/02/25 00:56:07;;;;;;;14.43;7.10;;;;;;;6.94;70.12;99902.87;1591942;87;25893;-80
2022/02/25 00:58:34;;;;;;;13.65;6.08;;;;;;;6.94;70.27;99893.05;1611737;87;25829;-79
2022/02/25 01:01:00;;;;;;;13.65;6.20;;;;;;;6.96;70.14;99896.86;1623876;87;25757;-79
2022/02/25 01:03:26;;;;;;;14.68;7.45;;;;;;;6.96;69.99;99887.54;1622347;87;28204;-79
2022/02/25 01:05:52;;;;;;;15.63;7.50;;;;;;;6.96;69.98;99890.20;1602068;87;25704;-79
2022/02/25 01:08:18;;;;;;;17.67;7.12;;;;;;;6.95;69.81;99881.38;1579558;89;25862;-80
2022/02/25 01:10:45;;;;;;;17.60;6.50;;;;;;;6.94;69.70;99880.23;1612230;88;26101;-79
2022/02/25 01:13:11;;;;;;;15.38;6.85;;;;;;;6.94;69.42;99882.41;1620813;87;25296;-79
2022/02/25 01:15:37;;;;;;;15.10;6.22;;;;;;;6.95;69.41;99884.04;1623162;87;27563;-79
2022/02/25 01:18:06;;;;;;;13.78;5.87;;;;;;;6.97;69.22;99880.69;1578844;88;25927;-80
2022/02/25 01:20:32;;;;;;;14.60;6.17;;;;;;;7.00;68.96;99878.17;1604651;88;25947;-79
2022/02/25 01:22:59;;;;;;;15.48;6.70;;;;;;;7.00;69.07;99872.36;1602139;88;25860;-80
2022/02/25 01:25:25;;;;;;;10.50;5.58;;;;;;;7.01;68.90;99868.67;1615847;87;25934;-79
2022/02/25 01:27:51;;;;;;;11.35;5.37;;;;;;;7.03;68.90;99861.85;1618009;87;27577;-80
2022/02/25 01:30:17;;;;;;;13.43;5.42;;;;;;;7.05;68.69;99868.31;1617285;87;25847;-80
2022/02/25 01:32:44;;;;;;;11.25;6.20;;;;;;;7.08;68.56;99869.30;1616481;87;25888;-80
2022/02/25 01:35:10;;;;;;;13.22;4.78;;;;;;;7.09;68.43;99861.12;1611136;88;26493;-79
2022/02/25 01:37:37;;;;;;;12.73;5.80;;;;;;;7.09;68.38;99857.63;1609452;88;54006;-79
2022/02/25 01:40:05;;;;;;;9.68;5.55;;;;;;;7.10;67.94;99859.29;1624526;87;27611;-79
2022/02/25 01:42:46;;;;;;;12.63;5.25;;;;;;;7.10;68.10;99865.95;1624782;87;25978;-79
2022/02/25 01:45:12;;;;;;;;;;;;;;;7.09;67.81;99865.61;1626165;87;25990;-79
2022/02/25 01:47:38;;;;;;;13.53;5.10;;;;;;;7.08;67.99;99855.45;1633153;87;25926;-79
2022/02/25 01:50:05;;;;;;;10.55;5.40;;;;;;;7.07;67.91;99859.64;1624546;87;26512;-79
2022/02/25 01:52:32;;;;;;;10.65;5.35;;;;;;;7.08;67.93;99855.98;1609504;88;28364;-80
2022/02/25 01:54:58;;;;;;;12.33;5.62;;;;;;;7.08;67.92;99851.98;1621554;87;25848;-80
2022/02/25 01:57:24;;;;;;;9.83;5.00;;;;;;;7.06;67.88;99852.15;1579652;88;25311;-79
2022/02/25 01:59:50;;;;;;;12.47;5.67;;;;;;;7.05;67.78;99850.52;1610616;87;26038;-79
2022/02/25 02:02:17;;;;;;;11.80;5.15;;;;;;;7.06;67.90;99848.16;1622858;87;26638;-80
2022/02/25 02:04:43;;;;;;;10.40;4.70;;;;;;;7.03;67.72;99856.53;1622420;86;27526;-79
2022/02/25 02:07:09;;;;;;;8.35;4.90;;;;;;;7.01;67.77;99855.36;1602685;87;25974;-80
2022/02/25 02:09:36;;;;;;;10.38;4.60;;;;;;;7.01;67.76;99861.20;1616918;86;25842;-79
2022/02/25 02:12:04;;;;;;;11.75;5.47;;;;;;;6.98;67.68;99858.40;1615275;87;26623;-79
2022/02/25 02:14:30;;;;;;;9.65;5.45;;;;;;;6.96;67.40;99863.08;1611272;87;25921;-79
2022/02/25 02:16:58;;;;;;;10.28;5.17;;;;;;;6.96;67.60;99859.59;1622721;87;27525;-81
2022/02/25 02:19:28;;;;;;;9.55;4.62;;;;;;;6.95;67.53;99862.74;1624464;86;25764;-79
2022/02/25 02:21:56;;;;;;;13.93;5.15;;;;;;;6.94;67.46;99862.94;1622649;87;25934;-79
2022/02/25 02:24:24;;;;;;;12.43;4.95;;;;;;;6.93;67.38;99863.43;1625648;87;25946;-79
2022/02/25 02:26:53;;;;;;;8.25;4.50;;;;;;;6.91;67.49;99862.78;1579722;89;25913;-80
2022/02/25 02:29:19;;;;;;;15.55;5.85;;;;;;;6.90;67.50;99859.81;1599234;87;27506;-80
2022/02/25 02:31:46;;;;;;;11.48;5.08;;;;;;;6.88;67.52;99855.67;1588502;90;25801;-80
2022/02/25 02:34:15;;;;;;;14.18;5.60;;;;;;;6.87;67.52;99859.33;1611091;88;26554;-80
2022/02/25 02:36:42;;;;;;;10.13;4.78;;;;;;;6.86;67.70;99861.16;1615363;87;26464;-79
2022/02/25 02:39:10;;;;;;;12.13;5.47;;;;;;;6.84;67.73;99869.83;1596437;87;26513;-79
2022/02/25 02:41:37;;;;;;;9.55;4.67;;;;;;;6.86;67.81;99875.00;1611091;88;27536;-79
2022/02/25 02:44:04;;;;;;;13.78;6.03;;;;;;;6.86;67.78;99867.02;1621979;87;25754;-79
2022/02/25 02:46:31;;;;;;;11.30;5.35;;;;;;;6.87;67.99;99867.31;1581549;89;26544;-79
2022/02/25 02:48:57;;;;;;;9.73;4.87;;;;;;;6.88;67.99;99865.00;1610996;87;25893;-79
2022/02/25 02:51:24;;;;;;;12.13;5.70;;;;;;;6.88;67.98;99872.48;1624167;87;26073;-79
2022/02/25 02:53:50;;;;;;;10.23;4.75;;;;;;;6.89;67.94;99864.80;1624341;86;27462;-79
2022/02/25 02:56:17;;;;;;;13.32;5.33;;;;;;;6.89;67.98;99863.97;1622498;87;25834;-79
2022/02/25 02:58:43;;;;;;;10.60;4.85;;;;;;;6.89;68.05;99871.45;1623834;87;25816;-79
2022/02/25 03:01:10;;;;;;;10.75;5.28;;;;;;;6.89;68.04;99874.13;1577103;89;26462;-79
2022/02/25 03:03:36;;;;;;;7.60;4.87;;;;;;;6.89;68.10;99879.45;1594756;88;26090;-81
2022/02/25 03:06:04;;;;;;;12.30;5.37;;;;;;;6.90;68.13;99881.11;1576372;89;27159;-79
2022/02/25 03:08:30;;;;;;;11.15;4.80;;;;;;;6.91;68.19;99889.41;1614609;87;25925;-79
2022/02/25 03:10:56;;;;;;;10.38;4.72;;;;;;;6.92;68.28;99888.91;1616715;87;25511;-79
2022/02/25 03:13:23;;;;;;;11.83;5.37;;;;;;;6.92;68.33;99899.06;1617612;87;26012;-79
2022/02/25 03:15:49;;;;;;;10.85;5.35;;;;;;;6.91;68.30;99900.06;1612963;86;25861;-79
2022/02/25 03:18:15;;;;;;;10.35;4.72;;;;;;;6.93;68.36;99898.53;1620798;86;27552;-79
2022/02/25 03:20:43;;;;;;;11.15;5.50;;;;;;;6.92;68.41;99900.39;1613899;87;25795;-80
2022/02/25 03:23:10;;;;;;;11.33;5.03;;;;;;;6.93;68.51;99902.03;1618102;87;25925;-79
2022/02/25 03:25:36;;;;;;;12.20;4.83;;;;;;;6.95;68.53;99901.34;1609850;88;25774;-79
2022/02/25 03:28:03;;;;;;;9.43;4.80;;;;;;;6.95;68.45;99901.84;1622624;86;25834;-79
2022/02/25 03:30:30;;;;;;;10.40;4.60;;;;;;;6.96;68.50;99899.02;1622555;87;27536;-79
2022/02/25 03:32:56;;;;;;;9.00;4.50;;;;;;;6.97;68.67;99907.84;1624457;86;25888;-81
2022/02/25 03:35:22;;;;;;;7.65;4.20;;;;;;;6.98;68.37;99901.00;1616207;87;26128;-80
2022/02/25 03:37:49;;;;;;;6.97;4.22;;;;;;;7.03;68.67;99911.11;1618233;86;26659;-80
2022/02/25 03:40:16;;;;;;;6.70;3.60;;;;;;;7.08;68.57;99899.92;1616076;86;25939;-80
2022/02/25 03:42:43;;;;;;;8.85;4.17;;;;;;;7.13;68.03;99910.84;1613690;87;28340;-79
2022/02/25 03:45:12;;;;;;;9.28;4.12;;;;;;;7.17;68.29;99912.96;1616294;86;26502;-79
2022/02/25 03:47:39;;;;;;;8.98;4.12;;;;;;;7.21;68.16;99928.06;1615258;87;25980;-79
2022/02/25 03:50:07;;;;;;;8.10;4.60;;;;;;;7.25;68.18;99936.84;1618556;86;26118;-80
2022/02/25 03:52:33;;;;;;;11.08;4.20;;;;;;;7.29;68.24;99936.80;1623812;87;25391;-79
2022/02/25 03:54:59;;;;;;;7.30;3.92;;;;;;;7.33;68.20;99935.95;1576532;89;27571;-79
2022/02/25 03:57:25;;;;;;;11.33;5.47;;;;;;;7.37;68.24;99935.91;1602574;88;25900;-79
2022/02/25 03:59:53;;;;;;;10.00;4.37;;;;;;;7.43;68.13;99936.02;1586925;88;26605;-79
2022/02/25 04:02:20;;;;;;;9.43;3.98;;;;;;;7.49;68.15;99933.11;1610762;88;25871;-79
2022/02/25 04:04:46;;;;;;;7.87;4.72;;;;;;;7.54;67.68;99936.89;1609992;87;25836;-80
2022/02/25 04:07:13;;;;;;;7.45;4.50;;;;;;;7.61;67.47;99945.79;1624084;87;27477;-79
2022/02/25 04:09:39;;;;;;;10.38;4.95;;;;;;;7.69;67.33;99947.55;1579631;89;25892;-79
2022/02/25 04:12:06;;;;;;;8.18;3.90;;;;;;;7.75;67.86;99958.81;1616552;87;26444;-81
2022/02/25 04:14:32;;;;;;;11.18;4.53;;;;;;;7.79;67.87;99966.26;1628631;86;25866;-81
2022/02/25 04:16:59;;;;;;;8.08;3.60;;;;;;;7.79;68.06;99960.92;1623278;87;25708;-79
2022/02/25 04:19:25;;;;;;;4.62;2.92;;;;;;;7.79;67.92;99966.75;1623572;86;27485;-80
2022/02/25 04:21:51;;;;;;;5.65;2.30;;;;;;;7.76;67.77;99989.27;1629226;86;26497;-80
2022/02/25 04:24:17;;;;;;;3.67;1.82;;;;;;;7.73;67.31;99992.83;1631811;86;25341;-80
2022/02/25 04:26:44;;;;;;;3.02;1.30;;;;;;;7.68;67.09;99997.37;1613794;88;25770;-79
2022/02/25 04:29:10;;;;;;;2.17;1.40;;;;;;;7.63;66.54;100004.27;1610233;87;25839;-79
2022/02/25 04:31:37;;;;;;;2.37;1.67;;;;;;;7.56;66.50;100009.49;1590423;88;27749;-81
2022/02/25 04:34:03;;;;;;;1.12;0.70;;;;;;;7.51;66.62;100014.53;1619328;87;25977;-80
2022/02/25 04:36:29;;;;;;;1.45;0.78;;;;;;;7.44;66.46;100013.59;1600398;87;26552;-79
2022/02/25 04:38:56;;;;;;;1.17;0.68;;;;;;;7.38;66.50;100033.46;1611995;87;25862;-80
2022/02/25 04:41:24;;;;;;;2.02;1.02;;;;;;;7.33;66.56;100038.52;1623473;87;25805;-80
2022/02/25 04:43:50;;;;;;;2.22;0.70;;;;;;;7.27;66.83;100052.03;1622603;87;28262;-79
2022/02/25 04:46:19;;;;;;;1.10;0.80;;;;;;;7.19;66.32;100045.45;1625034;87;25878;-80
2022/02/25 04:48:46;;;;;;;1.57;0.70;;;;;;;7.12;66.59;100050.34;1618831;86;26517;-80
2022/02/25 04:51:16;;;;;;;1.62;0.70;;;;;;;7.07;66.87;100068.19;1621257;87;26177;-80
2022/02/25 04:53:46;;;;;;;2.00;1.40;;;;;;;7.03;66.95;100083.36;1616013;87;26421;-80
2022/02/25 04:56:14;;;;;;;1.20;1.10;;;;;;;6.99;67.19;100094.87;1613358;87;27483;-80
2022/02/25 04:58:41;;;;;;;0.95;0.75;;;;;;;6.96;67.45;100105.37;1612404;87;25753;-79
2022/02/25 05:01:08;;;;;;;0.95;0.65;;;;;;;6.95;67.62;100102.86;1624560;86;25823;-80
2022/02/25 05:03:34;;;;;;;1.05;0.90;;;;;;;6.90;67.67;100118.55;1616155;86;26520;-79
2022/02/25 05:06:01;;;;;;;1.45;0.80;;;;;;;6.84;67.91;100121.92;1625995;87;25868;-79
2022/02/25 05:08:28;;;;;;;0.60;0.53;;;;;;;6.78;68.00;100139.89;1628212;86;27466;-79
2022/02/25 05:10:55;;;;;;;1.10;0.60;;;;;;;6.67;68.12;100142.95;1608106;87;26020;-80
2022/02/25 05:13:21;;;;;;;0.80;0.75;;;;;;;6.58;68.21;100144.82;1623120;87;26537;-80
2022/02/25 05:21:18;;;;;;;0.80;0.50;;;;;;;6.35;68.48;100165.67;1612589;87;27506;-80
2022/02/25 05:23:45;;;;;;;1.07;0.60;;;;;;;6.28;68.87;100175.33;1614394;87;25977;-80
2022/02/25 05:26:11;;;;;;;1.50;0.68;;;;;;;6.24;69.18;100181.50;1617917;87;25883;-80
2022/02/25 05:28:39;;;;;;;0.40;0.40;;;;;;;6.19;69.53;100188.64;1603605;87;25876;-79
2022/02/25 05:31:06;;;;;;;0.55;0.55;;;;;;;6.15;69.73;100193.97;1611317;87;25772;-80
2022/02/25 05:33:33;;;;;;;0.80;0.50;;;;;;;6.15;69.99;100198.45;1622943;87;27564;-80
2022/02/25 05:36:00;;;;;;;0.60;0.55;;;;;;;6.14;70.42;100207.41;1578660;89;25927;-79
2022/02/25 05:38:26;;;;;;;1.15;0.90;;;;;;;6.08;70.95;100196.13;1596989;88;25855;-81
2022/02/25 05:40:52;;;;;;;1.32;1.10;;;;;;;6.04;71.14;100204.11;1611575;87;26549;-80
2022/02/25 05:43:19;;;;;;;0.82;0.75;;;;;;;6.01;71.55;100209.75;1623797;87;25852;-80
2022/02/25 05:45:45;;;;;;;2.05;0.68;;;;;;;5.97;71.43;100219.89;1622923;87;28227;-80
2022/02/25 05:48:11;;;;;;;1.95;1.00;;;;;;;5.94;71.50;100228.71;1623127;86;25860;-79
2022/02/25 05:50:37;;;;;;;1.32;1.00;;;;;;;5.91;71.67;100233.85;1587246;89;25892;-79
2022/02/25 05:53:04;;;;;;;1.50;1.10;;;;;;;5.88;72.10;100223.54;1606793;88;25850;-80
2022/02/25 05:55:30;;;;;;;1.37;0.90;;;;;;;5.85;71.68;100238.51;1608714;87;25860;-80
2022/02/25 05:57:57;;;;;;;1.50;0.95;;;;;;;5.83;71.76;100252.43;1619739;87;28277;-80
2022/02/25 06:00:24;;;;;;;1.75;1.37;;;;;;;5.83;71.72;100252.92;1624701;86;25938;-79
2022/02/25 06:02:51;;;;;;;1.15;1.00;;;;;;;5.81;72.03;100263.73;1623699;87;25854;-80
2022/02/25 06:05:19;;;;;;;1.27;0.98;;;;;;;5.78;71.73;100272.02;1575628;89;26671;-80
2022/02/25 06:07:46;;;;;;;1.62;0.80;;;;;;;5.75;71.65;100273.66;1609131;88;25801;-80
2022/02/25 06:10:13;;;;;;;0.95;0.90;;;;;;;5.77;71.49;100277.50;1623923;86;27482;-82
2022/02/25 06:12:40;;;;;;;5.67;1.52;;;;;;;5.75;71.41;100283.48;1624735;87;25938;-81
2022/02/25 06:15:08;;;;;;;0.80;0.80;;;;;;;5.73;71.39;100288.13;1619355;87;25725;-82
2022/02/25 06:17:50;;;;;;;0.68;0.68;;;;;;;5.70;71.20;100280.47;1578893;88;25797;-83
2022/02/25 06:20:21;;;;;;;2.42;1.07;;;;;;;5.67;71.26;100303.37;1610645;87;25814;-82
2022/02/25 06:22:48;;;;;;;1.05;0.95;;;;;;;5.64;71.13;100301.89;1599269;88;27549;-82
2022/02/25 06:25:14;;;;;;;1.55;0.93;;;;;;;5.64;71.07;100305.88;1588764;90;25896;-82
2022/02/25 06:27:40;;;;;;;1.42;1.10;;;;;;;5.63;71.08;100307.34;1610704;88;25363;-82
2022/02/25 06:30:09;;;;;;;1.55;1.00;;;;;;;5.64;71.13;100319.16;1620348;87;25850;-82
2022/02/25 06:32:36;;;;;;;1.17;0.90;;;;;;;5.64;71.04;100327.14;1580036;88;25921;-82
2022/02/25 06:35:03;;;;;;;1.35;1.10;;;;;;;5.64;71.02;100324.97;1611275;87;28566;-82
2022/02/25 06:37:29;;;;;;;2.17;1.98;;;;;;;5.62;70.72;100322.48;1619346;86;25915;-83
2022/02/25 06:39:56;;;;;;;2.00;1.10;;;;;;;5.61;70.89;100323.95;1576265;90;25958;-82
2022/02/25 06:42:23;;;;;;;1.35;1.07;;;;;;;5.61;70.73;100332.76;1598476;88;25928;-82
2022/02/25 06:44:50;;;;;;;1.95;1.00;;;;;;;5.60;70.83;100334.26;1613035;87;26700;-83
2022/02/25 06:47:17;;;;;;;1.40;1.17;;;;;;;5.59;70.57;100337.41;1614609;87;27484;-82
2022/02/25 06:49:45;;;;;;;3.12;1.05;;;;;;;5.60;70.72;100341.74;1578758;90;25997;-82
2022/02/25 06:52:11;;;;;;;1.20;1.00;;;;;;;5.62;70.80;100349.55;1612911;87;25842;-82
2022/02/25 06:54:37;;;;;;;1.85;1.30;;;;;;;5.64;70.84;100350.21;1623733;87;25838;-82
2022/02/25 06:57:04;;;;;;;3.33;1.60;;;;;;;5.65;70.95;100356.69;1579274;89;25846;-82
2022/02/25 06:59:30;;;;;;;3.75;1.40;;;;;;;5.65;71.08;100374.44;1611122;87;27493;-82
2022/02/25 07:01:56;;;;;;;3.30;1.50;;;;;;;5.64;71.28;100383.42;1623661;87;25937;-82
2022/02/25 07:04:22;;;;;;;2.35;1.47;;;;;;;5.63;71.43;100393.21;1579742;89;25377;-84
2022/02/25 07:06:48;;;;;;;1.40;1.30;;;;;;;5.61;71.32;100390.38;1611087;88;25774;-83
2022/02/25 07:09:15;;;;;;;1.57;1.37;;;;;;;5.57;71.20;100391.20;1622659;86;25999;-83
2022/02/25 07:11:42;;;;;;;1.87;1.30;;;;;;;5.51;71.26;100390.52;1623554;87;27496;-83
2022/02/25 07:14:09;;;;;;;3.62;1.50;;;;;;;5.49;71.22;100400.47;1582687;89;26011;-82
2022/02/25 07:16:35;;;;;;;2.12;1.40;;;;;;;5.46;71.24;100399.45;1600499;88;25884;-83
2022/02/25 07:19:03;;;;;;;1.95;1.55;;;;;;;5.42;71.08;100411.38;1611145;87;25924;-83
2022/02/25 07:21:29;;;;;;;2.08;1.40;;;;;;;5.42;71.44;100414.88;1624852;87;25893;-80
2022/02/25 07:23:55;;;;;;;3.33;1.17;;;;;;;5.44;71.42;100424.84;1624680;87;28866;-79
2022/02/25 07:26:23;;;;;;;3.95;1.42;;;;;;;5.48;71.30;100428.85;1625501;87;25956;-79
2022/02/25 07:28:50;;;;;;;1.52;1.20;;;;;;;5.53;71.40;100435.51;1575160;89;25822;-80
2022/02/25 07:31:16;;;;;;;1.10;0.98;;;;;;;5.53;71.16;100443.48;1611122;88;26538;-80
2022/02/25 07:33:42;;;;;;;3.02;1.30;;;;;;;5.51;71.16;100444.97;1625786;87;25894;-79
2022/02/25 07:36:09;;;;;;;1.65;1.32;;;;;;;5.53;71.17;100446.13;1575652;89;27455;-80
2022/02/25 07:38:35;;;;;;;2.33;1.20;;;;;;;5.56;70.94;100456.45;1602802;88;26054;-80
2022/02/25 07:41:01;;;;;;;2.20;1.37;;;;;;;5.57;71.03;100459.44;1588798;89;25783;-81
2022/02/25 07:43:27;;;;;;;2.10;1.47;;;;;;;5.60;71.19;100471.94;1605976;88;25903;-80
2022/02/25 07:45:54;;;;;;;2.60;2.02;;;;;;;5.63;71.06;100478.73;1611327;88;25876;-79
2022/02/25 07:48:20;;;;;;;2.25;1.92;;;;;;;5.66;70.64;100483.73;1610686;87;27508;-79
2022/02/25 07:50:48;;;;;;;2.72;1.72;;;;;;;5.65;69.90;100501.98;1623964;87;25821;-79
2022/02/25 07:53:16;;;;;;;4.87;4.15;;;;;;;5.59;69.63;100499.97;1624455;87;25948;-79
2022/02/25 07:55:44;;;;;;;8.30;6.85;;;;;;;5.58;69.60;100515.58;1583892;89;25777;-79
2022/02/25 07:58:10;;;;;;;3.42;2.72;;;;;;;5.60;69.59;100518.42;1609857;87;25977;-79
2022/02/25 08:00:36;;;;;;;1.87;1.70;;;;;;;5.62;69.15;100520.92;1624683;87;27626;-79
2022/02/25 08:03:04;;;;;;;2.52;1.10;;;;;;;5.65;67.77;100520.59;1628261;87;25866;-79
2022/02/25 08:05:33;;;;;;;4.97;1.00;;;;;;;5.60;67.62;100530.88;1576286;89;25925;-80
2022/02/25 08:08:04;;;;;;;4.25;1.25;;;;;;;5.53;67.04;100538.63;1606729;88;25841;-79
2022/02/25 08:10:32;;;;;;;2.27;1.10;;;;;;;5.50;67.42;100540.26;1588799;90;25965;-80
2022/02/25 08:13:01;;;;;;;1.50;0.78;;;;;;;5.48;67.03;100540.91;1609115;88;28183;-79
2022/02/25 08:15:27;;;;;;;3.77;1.12;;;;;;;5.56;67.54;100542.28;1623553;87;26568;-79
2022/02/25 08:17:53;;;;;;;2.95;1.05;;;;;;;5.67;66.44;100549.16;1622608;87;25931;-80
2022/02/25 08:20:20;;;;;;;1.60;0.90;;;;;;;5.69;65.46;100547.21;1582770;87;25960;-79
2022/02/25 08:22:46;;;;;;;1.62;0.57;;;;;;;5.67;65.04;100559.80;1610094;88;25799;-79
2022/02/25 08:25:12;;;;;;;2.72;1.05;;;;;;;5.74;64.07;100565.67;1623803;87;27654;-79
2022/02/25 08:27:39;;;;;;;5.37;1.12;;;;;;;5.77;63.71;100554.73;1620532;87;26482;-79
2022/02/25 08:30:14;;;;;;;2.40;1.00;;;;;;;5.78;63.76;100574.16;1623659;86;25868;-79
2022/02/25 08:32:36;;;;;;;2.67;0.88;;;;;;;5.74;63.59;100575.46;1578238;89;25879;-79
2022/02/25 08:35:03;;;;;;;1.17;0.78;;;;;;;5.72;64.12;100580.94;1604178;87;25795;-79
2022/02/25 08:37:29;;;;;;;2.25;1.10;;;;;;;5.68;63.55;100574.77;1598341;87;28351;-79
2022/02/25 08:39:55;;;;;;;3.72;1.90;;;;;;;5.66;63.92;100578.07;1614528;87;25765;-80
2022/02/25 08:42:22;;;;;;;1.92;1.20;;;;;;;5.69;64.28;100592.39;1580855;90;25841;-79
2022/02/25 08:44:48;;;;;;;3.95;1.00;;;;;;;5.71;64.60;100594.39;1600063;88;25844;-80
2022/02/25 08:47:14;;;;;;;3.77;0.93;;;;;;;5.75;64.89;100593.09;1610369;88;26567;-80
2022/02/25 08:49:41;;;;;;;3.92;0.88;;;;;;;5.78;64.68;100600.73;1625642;87;27453;-80
2022/02/25 08:52:09;;;;;;;2.35;1.35;;;;;;;5.82;64.00;100606.07;1583005;89;25978;-79
2022/02/25 08:54:37;;;;;;;2.08;1.05;;;;;;;5.76;63.61;100598.73;1601874;88;25669;-80
2022/02/25 08:57:05;;;;;;;2.80;1.35;;;;;;;5.77;63.98;100597.75;1609708;88;25874;-79
2022/02/25 08:59:33;;;;;;;3.58;1.20;;;;;;;5.82;64.41;100615.38;1609467;87;25927;-79
2022/02/25 09:01:59;;;;;;;3.77;0.85;;;;;;;5.87;63.79;100610.47;1609762;88;28312;-79
2022/02/25 09:04:25;;;;;;;3.42;0.90;;;;;;;5.85;63.33;100621.27;1626385;87;26548;-79
2022/02/25 09:06:51;;;;;;;2.47;1.30;;;;;;;5.77;63.66;100629.16;1623902;87;25813;-79
2022/02/25 09:09:17;;;;;;;3.40;1.00;;;;;;;5.73;63.61;100622.97;1582547;89;26009;-79
2022/02/25 09:11:44;;;;;;;3.98;1.70;;;;;;;5.74;64.23;100626.80;1602824;88;25735;-80
2022/02/25 09:14:10;;;;;;;2.22;1.20;;;;;;;5.76;64.04;100619.50;1614302;88;28321;-79
2022/02/25 09:16:37;;;;;;;3.22;1.10;;;;;;;5.80;64.47;100626.66;1623277;87;25879;-79
2022/02/25 09:19:04;;;;;;;2.27;1.40;;;;;;;5.84;64.67;100624.90;1575073;89;25871;-79
2022/02/25 09:21:30;;;;;;;3.83;1.75;;;;;;;5.89;64.93;100638.56;1603759;88;26043;-79
2022/02/25 09:23:57;;;;;;;6.30;1.65;;;;;;;5.94;64.62;100636.29;1610334;88;25701;-79
2022/02/25 09:26:23;;;;;;;3.25;1.30;;;;;;;5.93;64.01;100647.89;1623808;87;27199;-79
2022/02/25 09:28:50;;;;;;;3.42;1.10;;;;;;;5.87;63.81;100651.19;1615757;87;26727;-80
2022/02/25 09:31:16;;;;;;;4.10;1.45;;;;;;;5.82;63.32;100660.07;1574867;90;26563;-79
2022/02/25 09:33:43;;;;;;;3.85;1.42;;;;;;;5.83;63.73;100662.25;1603170;88;25970;-79
2022/02/25 09:36:09;;;;;;;4.90;1.27;;;;;;;5.84;63.19;100659.45;1609555;88;25792;-79
2022/02/25 09:38:36;;;;;;;19.17;7.75;;;;;;;5.83;63.22;100664.41;1622626;86;27450;-80
2022/02/25 09:41:05;;;;;;;8.75;3.58;;;;;;;5.83;61.55;100661.76;1622598;87;25943;-80
2022/02/25 09:43:32;;;;;;;7.08;2.27;;;;;;;5.84;62.38;100671.91;1624372;87;25954;-79
2022/02/25 09:46:01;;;;;;;8.40;2.50;;;;;;;5.84;62.38;100670.09;1580409;89;26647;-80
2022/02/25 09:48:28;;;;;;;5.08;1.45;;;;;;;5.87;62.49;100665.80;1610919;87;25412;-80
2022/02/25 09:50:54;;;;;;;9.58;1.70;;;;;;;5.90;62.33;100672.64;1624785;87;28284;-81
2022/02/25 09:53:21;;;;;;;5.35;2.52;;;;;;;5.90;62.37;100673.45;1623290;86;25860;-79
2022/02/25 09:55:47;;;;;;;4.25;1.35;;;;;;;5.89;62.36;100671.80;1583317;89;26659;-79
2022/02/25 09:58:13;;;;;;;3.05;1.10;;;;;;;5.88;62.27;100677.28;1612375;87;25840;-79
2022/02/25 10:00:42;;;;;;;7.15;2.00;;;;;;;5.89;62.80;100678.93;1622267;87;25751;-79
2022/02/25 10:03:16;;;;;;;6.35;2.05;;;;;;;5.89;62.40;100678.93;1575594;89;28313;-79
2022/02/25 10:05:44;;;;;;;6.10;1.72;;;;;;;5.87;62.92;100688.40;1611641;87;26011;-79
2022/02/25 10:08:18;;;;;;;6.03;3.30;;;;;;;5.89;63.00;100685.58;1623673;87;25888;-79
2022/02/25 10:10:51;;;;;;;7.95;2.62;;;;;;;5.90;62.99;100692.58;1612971;87;25835;-79
2022/02/25 10:13:21;;;;;;;5.20;2.00;;;;;;;5.88;63.43;100691.37;1612791;87;26034;-79
2022/02/25 10:15:53;;;;;;;8.40;2.60;;;;;;;5.92;64.07;100700.72;1613166;87;27512;-79
2022/02/25 10:18:34;;;;;;;6.60;2.83;;;;;;;5.96;63.79;100702.59;1613917;87;26050;-79
2022/02/25 10:21:07;;;;;;;5.35;2.22;;;;;;;5.94;63.59;100701.42;1619071;87;25872;-78
2022/02/25 10:23:38;;;;;;;5.95;2.72;;;;;;;5.95;63.51;100700.91;1582179;90;26502;-79
2022/02/25 10:26:18;;;;;;;8.45;2.45;;;;;;;6.04;64.23;100709.29;1616240;87;25930;-79
2022/02/25 10:28:54;;;;;;;8.78;3.85;;;;;;;6.08;63.18;100706.66;1615199;87;27474;-82
2022/02/25 10:31:36;;;;;;;4.65;2.10;;;;;;;6.12;63.41;100710.67;1608837;88;26021;-82
2022/02/25 10:34:13;;;;;;;11.12;4.90;;;;;;;6.13;61.87;100707.87;1600848;88;25921;-82
2022/02/25 10:36:47;;;;;;;7.78;3.67;;;;;;;6.16;63.24;100705.37;1610984;88;25990;-82
2022/02/25 10:39:27;;;;;;;12.05;3.60;;;;;;;6.23;63.34;100703.77;1610183;87;25806;-82
2022/02/25 10:42:11;;;;;;;9.20;3.50;;;;;;;6.29;62.47;100705.80;1618725;86;28349;-82
2022/02/25 10:44:50;;;;;;;5.72;2.92;;;;;;;6.32;63.04;100708.16;1621930;86;26506;-82
2022/02/25 10:47:29;;;;;;;9.20;2.77;;;;;;;6.40;63.15;100706.03;1617306;87;25826;-82
2022/02/25 10:50:02;;;;;;;6.37;2.05;;;;;;;6.48;62.25;100706.10;1619627;86;26626;-82
2022/02/25 10:52:33;;;;;;;13.68;2.92;;;;;;;6.51;61.92;100704.44;1617746;87;26072;-82
2022/02/25 10:55:03;;;;;;;7.90;2.20;;;;;;;6.52;61.72;100702.94;1617358;87;28812;-82
2022/02/25 10:57:33;;;;;;;7.92;2.02;;;;;;;6.58;62.21;100703.66;1619749;87;25914;-82
2022/02/25 11:00:04;;;;;;;6.17;2.43;;;;;;;6.63;61.95;100711.98;1614204;86;25795;-82
2022/02/25 11:02:34;;;;;;;7.85;1.87;;;;;;;6.63;61.20;100716.50;1610982;88;26614;-82
2022/02/25 11:05:14;;;;;;;8.48;2.47;;;;;;;6.59;61.04;100713.30;1622944;86;25887;-82
2022/02/25 11:07:52;;;;;;;7.23;1.73;;;;;;;6.63;60.35;100711.17;1575488;89;27541;-82
2022/02/25 11:10:26;;;;;;;6.83;2.25;;;;;;;6.63;60.62;100713.31;1611385;87;26113;-81
2022/02/25 11:12:55;;;;;;;8.80;2.22;;;;;;;6.59;60.33;100713.79;1602876;87;25805;-81
2022/02/25 11:15:25;;;;;;;8.08;2.40;;;;;;;6.51;59.99;100717.74;1588325;90;26551;-82
2022/02/25 11:17:53;;;;;;;16.65;6.20;;;;;;;6.45;59.52;100717.89;1610235;88;26552;-82
2022/02/25 11:20:26;;;;;;;6.87;3.35;;;;;;;6.44;59.89;100720.69;1622102;86;28335;-82
2022/02/25 11:23:00;;;;;;;12.80;4.80;;;;;;;6.49;60.98;100728.55;1587604;89;25851;-82
2022/02/25 11:25:26;;;;;;;8.88;3.77;;;;;;;6.53;61.01;100717.93;1608426;88;25324;-82
2022/02/25 11:27:53;;;;;;;9.50;4.70;;;;;;;6.54;61.00;100718.28;1623905;87;25761;-82
2022/02/25 11:30:34;;;;;;;14.20;7.45;;;;;;;6.59;60.56;100711.97;1575945;88;25849;-83
2022/02/25 11:33:15;;;;;;;8.58;4.62;;;;;;;6.61;58.96;100717.12;1598920;88;27600;-82
2022/02/25 11:35:54;;;;;;;7.47;4.20;;;;;;;6.60;59.80;100719.47;1588382;89;25889;-83
2022/02/25 11:38:40;;;;;;;11.15;3.98;;;;;;;6.63;59.81;100717.31;1617936;86;25987;-82
2022/02/25 11:41:19;;;;;;;10.63;4.60;;;;;;;6.62;60.68;100716.14;1621778;87;25891;-81